Mini Oiri Solo Sail — FAD6452 — position and weather

sailwx.info

Track history (hours):
 
Tides and Currents Weather Stations Pressure Air Temp Water Temp Dewpoint Dewpoint Depression Visibility Wind Speed Wind Dir Waves Ship Positions

Mini Oiri Solo Sail

Last reported at 2017-Sep-26 21:56 UTC. Time now 2017-Sep-26 22:04 UTC.
Position N 46°09' W 001°09'.

Length 6 m.

Type: Pleasure craft. MMSI: 227414390.

Date/timePositionNaut miles runAvg speedWind from/ knotsBaromVisibWave heightAir tempDewpointWater temp
2017-Sep-26 21:56N 46°09' W 001°09'0 0.0
2017-Sep-26 21:23N 46°09' W 001°09'0 0.0
2017-Sep-26 20:59N 46°09' W 001°09'0 0.0
2017-Sep-26 20:29N 46°09' W 001°09'0 0.0
2017-Sep-26 19:56N 46°09' W 001°09'0 0.0
2017-Sep-26 19:29N 46°09' W 001°09'0 0.0
2017-Sep-26 18:59N 46°09' W 001°09'0 0.0
2017-Sep-26 18:26N 46°09' W 001°09'0 0.0
2017-Sep-26 17:56N 46°09' W 001°09'0 0.0
2017-Sep-24 16:15N 46°09' W 001°09'0 0.0
2017-Sep-24 16:00N 46°09' W 001°09'1 2.2
2017-Sep-24 15:30N 46°09' W 001°10'1 1.2
2017-Sep-24 15:00N 46°08' W 001°11'0 0.7
2017-Sep-24 14:30N 46°08' W 001°11'1 2.5
2017-Sep-24 14:00N 46°07' W 001°12'2 3.0
2017-Sep-24 13:30N 46°08' W 001°11'1 2.7
2017-Sep-24 12:59N 46°07' W 001°12'1 2.5
2017-Sep-24 12:29N 46°06' W 001°12'1 1.4
2017-Sep-24 11:55N 46°06' W 001°11'0 0.3
2017-Sep-24 11:25N 46°06' W 001°11'0 0.0
2017-Sep-24 10:16N 46°06' W 001°11'0 0.1
2017-Sep-24 08:26N 46°06' W 001°12'0 0.7
2017-Sep-24 07:59N 46°06' W 001°12'1 1.3
2017-Sep-24 07:28N 46°06' W 001°13'1 1.7
2017-Sep-24 07:00N 46°07' W 001°13'1 1.6
2017-Sep-24 06:30N 46°07' W 001°14'1 2.2
2017-Sep-24 06:00N 46°08' W 001°12'2 3.6
2017-Sep-24 05:30N 46°09' W 001°10'0 0.8
2017-Sep-24 04:59N 46°09' W 001°09'0 0.4
2017-Sep-24 04:15N 46°09' W 001°09'0 0.0
2017-Sep-24 04:00N 46°09' W 001°09'0 0.0
2017-Sep-24 03:27N 46°09' W 001°09'0 0.0
2017-Sep-24 03:00N 46°09' W 001°09'0 0.0
2017-Sep-24 02:30N 46°09' W 001°09'0 0.0
2017-Sep-24 01:57N 46°09' W 001°09'0 0.0
2017-Sep-24 01:27N 46°09' W 001°09'0 0.0
2017-Sep-24 00:57N 46°09' W 001°09'0 0.0
2017-Sep-24 00:27N 46°09' W 001°09'0 0.0
2017-Sep-23 23:39N 46°09' W 001°09'0 0.0
2017-Sep-23 23:21N 46°09' W 001°09'0 0.0
2017-Sep-23 22:51N 46°09' W 001°09'0 0.0
2017-Sep-23 22:12N 46°09' W 001°09'0 0.0
2017-Sep-23 21:54N 46°09' W 001°09'0 0.0
2017-Sep-23 21:30N 46°09' W 001°09'0 0.0
2017-Sep-23 20:57N 46°09' W 001°09'0 0.0
2017-Sep-23 20:30N 46°09' W 001°09'0 0.0
2017-Sep-23 20:00N 46°09' W 001°09'  
2017-Sep-18 17:47N 46°09' W 001°10'0 0.0
2017-Sep-18 17:23N 46°09' W 001°10'1 2.0
2017-Sep-18 17:00N 46°09' W 001°11'2 4.4
2017-Sep-18 16:30N 46°09' W 001°14'24 6.1
2017-Sep-18 12:31N 46°23' W 001°43'0 5.8
2017-Sep-18 12:27N 46°23' W 001°44'3 6.0
2017-Sep-18 12:00N 46°25' W 001°46'3 6.4
2017-Sep-18 11:29N 46°24' W 001°50'79 3.7
2017-Sep-17 14:26N 47°23' W 003°06'4 8.9
2017-Sep-17 14:00N 47°26' W 003°10'  
Track history (hours):
 
Tides and Currents Weather Stations Pressure Air Temp Water Temp Dewpoint Dewpoint Depression Visibility Wind Speed Wind Dir Waves Ship Positions

Mini Oiri Solo Sail

Last reported at 2017-Sep-26 21:56 UTC. Time now 2017-Sep-26 22:04 UTC.
Position N 46°09' W 001°09'.

Length 6 m.

Type: Pleasure craft. MMSI: 227414390.

Date/timePositionNaut miles runAvg speedWind from/ knotsBaromVisibWave heightAir tempDewpointWater temp
2017-Sep-26 21:56N 46°09' W 001°09'0 0.0
2017-Sep-26 21:23N 46°09' W 001°09'0 0.0
2017-Sep-26 20:59N 46°09' W 001°09'0 0.0
2017-Sep-26 20:29N 46°09' W 001°09'0 0.0
2017-Sep-26 19:56N 46°09' W 001°09'0 0.0
2017-Sep-26 19:29N 46°09' W 001°09'0 0.0
2017-Sep-26 18:59N 46°09' W 001°09'0 0.0
2017-Sep-26 18:26N 46°09' W 001°09'0 0.0
2017-Sep-26 17:56N 46°09' W 001°09'0 0.0
2017-Sep-24 16:15N 46°09' W 001°09'0 0.0
2017-Sep-24 16:00N 46°09' W 001°09'1 2.2
2017-Sep-24 15:30N 46°09' W 001°10'1 1.2
2017-Sep-24 15:00N 46°08' W 001°11'0 0.7
2017-Sep-24 14:30N 46°08' W 001°11'1 2.5
2017-Sep-24 14:00N 46°07' W 001°12'2 3.0
2017-Sep-24 13:30N 46°08' W 001°11'1 2.7
2017-Sep-24 12:59N 46°07' W 001°12'1 2.5
2017-Sep-24 12:29N 46°06' W 001°12'1 1.4
2017-Sep-24 11:55N 46°06' W 001°11'0 0.3
2017-Sep-24 11:25N 46°06' W 001°11'0 0.0
2017-Sep-24 10:16N 46°06' W 001°11'0 0.1
2017-Sep-24 08:26N 46°06' W 001°12'0 0.7
2017-Sep-24 07:59N 46°06' W 001°12'1 1.3
2017-Sep-24 07:28N 46°06' W 001°13'1 1.7
2017-Sep-24 07:00N 46°07' W 001°13'1 1.6
2017-Sep-24 06:30N 46°07' W 001°14'1 2.2
2017-Sep-24 06:00N 46°08' W 001°12'2 3.6
2017-Sep-24 05:30N 46°09' W 001°10'0 0.8
2017-Sep-24 04:59N 46°09' W 001°09'0 0.4
2017-Sep-24 04:15N 46°09' W 001°09'0 0.0
2017-Sep-24 04:00N 46°09' W 001°09'0 0.0
2017-Sep-24 03:27N 46°09' W 001°09'0 0.0
2017-Sep-24 03:00N 46°09' W 001°09'0 0.0
2017-Sep-24 02:30N 46°09' W 001°09'0 0.0
2017-Sep-24 01:57N 46°09' W 001°09'0 0.0
2017-Sep-24 01:27N 46°09' W 001°09'0 0.0
2017-Sep-24 00:57N 46°09' W 001°09'0 0.0
2017-Sep-24 00:27N 46°09' W 001°09'0 0.0
2017-Sep-23 23:39N 46°09' W 001°09'0 0.0
2017-Sep-23 23:21N 46°09' W 001°09'0 0.0
2017-Sep-23 22:51N 46°09' W 001°09'0 0.0
2017-Sep-23 22:12N 46°09' W 001°09'0 0.0
2017-Sep-23 21:54N 46°09' W 001°09'0 0.0
2017-Sep-23 21:30N 46°09' W 001°09'0 0.0
2017-Sep-23 20:57N 46°09' W 001°09'0 0.0
2017-Sep-23 20:30N 46°09' W 001°09'0 0.0
2017-Sep-23 20:00N 46°09' W 001°09'  
2017-Sep-18 17:47N 46°09' W 001°10'0 0.0
2017-Sep-18 17:23N 46°09' W 001°10'1 2.0
2017-Sep-18 17:00N 46°09' W 001°11'2 4.4
2017-Sep-18 16:30N 46°09' W 001°14'24 6.1
2017-Sep-18 12:31N 46°23' W 001°43'0 5.8
2017-Sep-18 12:27N 46°23' W 001°44'3 6.0
2017-Sep-18 12:00N 46°25' W 001°46'3 6.4
2017-Sep-18 11:29N 46°24' W 001°50'79 3.7
2017-Sep-17 14:26N 47°23' W 003°06'4 8.9
2017-Sep-17 14:00N 47°26' W 003°10'  

Dump ship's entire track history